Time;durP1;ratioP1;P1;durP2;ratioP2;P2;SDS_P1;SDS_P2;PMS_P1;PMS_P2;Temp;Humidity;BMP_temperature;BMP_pressure;BME280_temperature;BME280_humidity;BME280_pressure;Samples;Min_cycle;Max_cycle;Signal;HPM_P1;HPM_P2
2021/08/25 00:01:10;;;;;;;20.57;10.77;;;14.30;99.90;;;;;;5009300;28;20493;-59
2021/08/25 00:03:36;;;;;;;12.90;9.77;;;14.30;99.90;;;;;;5000403;28;20268;-59
2021/08/25 00:06:01;;;;;;;12.13;9.50;;;14.20;99.90;;;;;;4994194;28;20750;-60
2021/08/25 00:08:27;;;;;;;13.30;10.07;;;14.30;99.90;;;;;;5009257;28;20446;-60
2021/08/25 00:10:52;;;;;;;13.73;9.90;;;14.30;99.90;;;;;;5011717;28;20230;-58
2021/08/25 00:13:18;;;;;;;15.87;10.10;;;14.30;99.90;;;;;;5013516;28;20182;-59
2021/08/25 00:15:44;;;;;;;21.27;10.60;;;14.30;99.90;;;;;;4994650;28;20808;-59
2021/08/25 00:18:11;;;;;;;15.43;10.27;;;14.30;99.90;;;;;;4991782;28;20621;-60
2021/08/25 00:20:37;;;;;;;13.80;9.50;;;14.30;99.90;;;;;;5015577;28;20472;-59
2021/08/25 00:23:03;;;;;;;13.80;10.63;;;14.30;99.90;;;;;;5011680;28;20428;-59
2021/08/25 00:25:29;;;;;;;14.83;10.80;;;14.20;99.90;;;;;;5010581;28;20467;-59
2021/08/25 00:27:55;;;;;;;12.47;9.10;;;14.20;99.90;;;;;;5002889;28;20483;-60
2021/08/25 00:30:21;;;;;;;12.03;9.50;;;14.30;99.90;;;;;;5012635;28;20682;-59
2021/08/25 00:32:48;;;;;;;16.33;10.20;;;14.30;99.90;;;;;;5012667;28;20692;-59
2021/08/25 00:35:13;;;;;;;14.73;10.67;;;14.20;99.90;;;;;;5012002;28;20467;-58
2021/08/25 00:37:39;;;;;;;12.80;9.90;;;14.20;99.90;;;;;;5004099;28;20439;-60
2021/08/25 00:40:06;;;;;;;14.90;10.20;;;14.20;99.90;;;;;;5010271;28;20179;-61
2021/08/25 00:42:32;;;;;;;11.70;10.13;;;14.20;99.90;;;;;;5013016;28;20172;-60
2021/08/25 00:45:03;;;;;;;13.00;10.87;;;14.20;99.90;;;;;;5012348;28;20813;-59
2021/08/25 00:47:32;;;;;;;12.90;9.63;;;14.20;99.90;;;;;;4999087;28;20204;-61
2021/08/25 00:49:58;;;;;;;19.23;11.60;;;14.20;99.90;;;;;;5001726;28;20426;-59
2021/08/25 00:52:23;;;;;;;13.67;9.73;;;14.20;99.90;;;;;;5010180;28;20435;-59
2021/08/25 00:54:49;;;;;;;12.03;9.87;;;14.20;99.90;;;;;;4992175;28;20196;-59
2021/08/25 00:57:14;;;;;;;17.70;11.20;;;14.20;99.90;;;;;;5009542;28;20236;-59
2021/08/25 00:59:40;;;;;;;15.03;10.77;;;14.20;99.90;;;;;;4995247;28;20563;-59
2021/08/25 01:02:23;;;;;;;16.93;10.80;;;14.10;99.90;;;;;;5011214;28;20671;-59
2021/08/25 01:04:56;;;;;;;14.77;9.90;;;14.10;99.90;;;;;;5001071;28;20187;-60
2021/08/25 01:07:23;;;;;;;12.67;9.97;;;14.20;99.90;;;;;;5005679;28;20821;-60
2021/08/25 01:09:52;;;;;;;15.17;10.73;;;14.10;99.90;;;;;;5011250;28;20463;-60
2021/08/25 01:12:24;;;;;;;14.03;10.00;;;14.10;99.90;;;;;;5008286;28;20444;-61
2021/08/25 01:14:50;;;;;;;12.73;10.40;;;14.10;99.90;;;;;;5005142;28;20463;-62
2021/08/25 01:17:23;;;;;;;16.50;10.53;;;14.10;99.90;;;;;;5012246;28;20422;-60
2021/08/25 01:20:10;;;;;;;13.83;10.60;;;14.20;99.90;;;;;;5010123;28;20250;-62
2021/08/25 01:22:38;;;;;;;14.87;10.90;;;14.20;99.90;;;;;;5010717;28;20419;-60
2021/08/25 01:25:05;;;;;;;15.63;11.97;;;14.20;99.90;;;;;;5010024;28;20534;-60
2021/08/25 01:27:32;;;;;;;14.23;11.50;;;14.20;99.90;;;;;;5011831;28;20454;-60
2021/08/25 01:29:58;;;;;;;17.57;13.17;;;14.20;99.90;;;;;;4993510;28;20454;-60
2021/08/25 01:32:25;;;;;;;15.57;10.97;;;14.20;99.90;;;;;;5011094;28;20785;-60
2021/08/25 01:34:54;;;;;;;15.50;10.47;;;14.10;99.90;;;;;;5009859;28;20459;-60
2021/08/25 01:37:21;;;;;;;16.70;11.83;;;14.10;99.90;;;;;;4991568;28;20423;-60
2021/08/25 01:39:48;;;;;;;19.33;11.90;;;14.10;99.90;;;;;;5008617;28;20533;-60
2021/08/25 01:42:14;;;;;;;16.80;12.07;;;14.10;99.90;;;;;;4993467;28;20419;-60
2021/08/25 01:44:40;;;;;;;15.33;10.83;;;14.10;99.90;;;;;;5010732;28;20438;-59
2021/08/25 01:47:06;;;;;;;15.03;11.80;;;14.00;99.90;;;;;;5007766;28;20435;-61
2021/08/25 01:49:31;;;;;;;14.13;10.53;;;14.00;99.90;;;;;;5012728;28;20730;-60
2021/08/25 01:51:58;;;;;;;12.00;9.33;;;14.00;99.90;;;;;;5001117;28;20736;-59
2021/08/25 01:54:25;;;;;;;17.23;10.53;;;14.00;99.90;;;;;;4992979;28;20197;-60
2021/08/25 01:56:51;;;;;;;14.17;10.53;;;14.00;99.90;;;;;;4988139;28;20509;-60
2021/08/25 01:59:17;;;;;;;15.70;11.53;;;14.00;99.90;;;;;;5011601;28;20956;-60
2021/08/25 02:01:43;;;;;;;15.30;11.83;;;14.00;99.90;;;;;;5011039;28;20263;-60
2021/08/25 02:04:09;;;;;;;16.63;11.00;;;14.00;99.90;;;;;;4979448;28;20503;-59
2021/08/25 02:06:34;;;;;;;15.50;10.67;;;14.00;99.90;;;;;;5003511;28;20263;-60
2021/08/25 02:09:01;;;;;;;14.70;10.87;;;14.00;99.90;;;;;;5009551;28;20271;-61
2021/08/25 02:11:26;;;;;;;15.83;10.77;;;14.00;99.90;;;;;;5008687;28;20230;-61
2021/08/25 02:13:53;;;;;;;13.83;10.50;;;14.00;99.90;;;;;;5009838;28;20431;-60
2021/08/25 02:16:19;;;;;;;14.00;10.40;;;14.00;99.90;;;;;;5006032;28;20708;-61
2021/08/25 02:18:45;;;;;;;16.73;12.07;;;14.10;99.90;;;;;;5002270;28;20466;-60
2021/08/25 02:21:11;;;;;;;16.53;11.30;;;14.10;99.90;;;;;;5009303;28;20224;-60
2021/08/25 02:23:37;;;;;;;14.73;10.90;;;14.10;99.90;;;;;;5008168;28;20787;-60
2021/08/25 02:26:03;;;;;;;18.63;11.40;;;14.00;99.90;;;;;;4988928;28;20196;-60
2021/08/25 02:28:29;;;;;;;17.40;12.30;;;14.10;99.90;;;;;;5001525;28;20216;-60
2021/08/25 02:30:55;;;;;;;18.90;11.17;;;14.10;99.90;;;;;;4995524;28;20909;-59
2021/08/25 02:33:20;;;;;;;14.90;11.50;;;14.00;99.90;;;;;;5009347;28;20180;-60
2021/08/25 02:35:46;;;;;;;13.73;11.30;;;14.00;99.90;;;;;;5009394;28;20232;-60
2021/08/25 02:38:12;;;;;;;14.17;11.17;;;14.00;99.90;;;;;;5009254;28;20197;-60
2021/08/25 02:40:38;;;;;;;14.60;10.53;;;14.00;99.90;;;;;;5010557;28;20176;-61
2021/08/25 02:43:04;;;;;;;15.10;10.77;;;14.00;99.90;;;;;;5008325;28;20175;-60
2021/08/25 02:45:30;;;;;;;15.70;11.77;;;14.00;99.90;;;;;;5007731;28;20431;-59
2021/08/25 02:47:56;;;;;;;15.37;10.60;;;14.00;99.90;;;;;;5009426;28;20791;-60
2021/08/25 02:50:21;;;;;;;13.87;10.47;;;14.00;99.90;;;;;;5007443;28;20176;-60
2021/08/25 02:52:47;;;;;;;14.30;9.93;;;13.90;99.90;;;;;;5008211;28;20267;-60
2021/08/25 02:55:13;;;;;;;14.50;10.40;;;13.90;99.90;;;;;;4992234;28;20223;-59
2021/08/25 02:57:38;;;;;;;14.87;9.40;;;13.80;99.90;;;;;;5007637;28;20730;-60
2021/08/25 03:00:05;;;;;;;14.10;10.40;;;13.80;99.90;;;;;;4992300;28;20175;-60
2021/08/25 03:02:31;;;;;;;13.30;9.40;;;13.80;99.90;;;;;;4998199;28;20199;-59
2021/08/25 03:04:56;;;;;;;11.67;9.13;;;13.70;99.90;;;;;;5010080;28;20928;-60
2021/08/25 03:07:22;;;;;;;11.10;8.80;;;13.70;99.90;;;;;;5004325;28;20180;-59
2021/08/25 03:09:48;;;;;;;13.20;8.37;;;13.70;99.90;;;;;;5009007;28;20243;-59
2021/08/25 03:12:13;;;;;;;11.17;8.83;;;13.70;99.90;;;;;;5009173;28;20192;-61
2021/08/25 03:14:39;;;;;;;14.20;8.80;;;13.70;99.90;;;;;;5009002;28;20758;-59
2021/08/25 03:17:05;;;;;;;10.07;7.87;;;13.70;99.90;;;;;;5010109;28;20200;-59
2021/08/25 03:19:30;;;;;;;10.50;7.90;;;13.70;99.90;;;;;;5009734;28;20211;-59
2021/08/25 03:21:56;;;;;;;13.77;9.00;;;13.70;99.90;;;;;;5007573;28;20553;-60
2021/08/25 03:24:21;;;;;;;21.87;9.93;;;13.70;99.90;;;;;;5008271;28;20204;-59
2021/08/25 03:26:47;;;;;;;10.73;9.00;;;13.70;99.90;;;;;;5005535;28;20216;-59
2021/08/25 03:29:13;;;;;;;12.17;8.87;;;13.70;99.90;;;;;;5009383;28;20188;-60
2021/08/25 03:31:38;;;;;;;10.60;8.50;;;13.70;99.90;;;;;;5008584;28;20260;-59
2021/08/25 03:34:04;;;;;;;11.53;9.20;;;13.70;99.90;;;;;;4992506;28;20177;-60
2021/08/25 03:36:30;;;;;;;13.60;9.23;;;13.70;99.90;;;;;;4973156;28;20264;-60
2021/08/25 03:38:55;;;;;;;16.97;8.60;;;13.60;99.90;;;;;;5005221;28;20215;-59
2021/08/25 03:41:21;;;;;;;14.93;10.03;;;13.60;99.90;;;;;;5005140;28;20177;-60
2021/08/25 03:43:47;;;;;;;15.13;9.77;;;13.60;99.90;;;;;;4994244;28;20531;-60
2021/08/25 03:46:13;;;;;;;12.17;9.63;;;13.60;99.90;;;;;;5007675;28;20700;-58
2021/08/25 03:48:39;;;;;;;11.90;9.47;;;13.60;99.90;;;;;;5005818;28;20282;-60
2021/08/25 03:51:05;;;;;;;17.57;9.10;;;13.60;99.90;;;;;;5007273;28;20487;-61
2021/08/25 03:53:31;;;;;;;11.83;8.60;;;13.50;99.90;;;;;;4989215;28;20864;-59
2021/08/25 03:55:56;;;;;;;12.50;9.20;;;13.50;99.90;;;;;;4992058;28;20276;-58
2021/08/25 03:58:22;;;;;;;13.17;9.47;;;13.50;99.90;;;;;;5006340;28;20606;-60
2021/08/25 04:00:48;;;;;;;13.47;9.73;;;13.50;99.90;;;;;;4998774;28;20196;-60
2021/08/25 04:03:14;;;;;;;11.33;9.20;;;13.50;99.90;;;;;;4989915;28;20173;-59
2021/08/25 04:05:39;;;;;;;17.70;9.13;;;13.50;99.90;;;;;;5006547;28;20443;-59
2021/08/25 04:08:05;;;;;;;13.50;9.40;;;13.50;99.90;;;;;;5000898;28;20208;-60
2021/08/25 04:10:31;;;;;;;10.47;9.10;;;13.50;99.90;;;;;;5004174;28;20200;-59
2021/08/25 04:12:57;;;;;;;13.10;8.77;;;13.50;99.90;;;;;;5008737;28;20181;-59
2021/08/25 04:15:23;;;;;;;12.43;9.07;;;13.50;99.90;;;;;;5009065;28;20209;-59
2021/08/25 04:17:48;;;;;;;11.80;9.20;;;13.50;99.90;;;;;;4983696;28;20420;-59
2021/08/25 04:20:14;;;;;;;11.20;9.20;;;13.50;99.90;;;;;;5002168;28;20688;-61
2021/08/25 04:22:40;;;;;;;13.17;7.83;;;13.50;99.90;;;;;;5007033;28;20192;-60
2021/08/25 04:25:07;;;;;;;16.50;8.90;;;13.50;99.90;;;;;;4991599;28;20613;-60
2021/08/25 04:27:32;;;;;;;13.30;9.93;;;13.50;99.90;;;;;;5002318;28;20462;-60
2021/08/25 04:29:58;;;;;;;13.77;9.33;;;13.50;99.90;;;;;;5009492;28;21093;-60
2021/08/25 04:32:24;;;;;;;15.30;10.57;;;13.50;99.90;;;;;;5007684;28;20184;-60
2021/08/25 04:34:49;;;;;;;13.97;10.00;;;13.50;99.90;;;;;;5002952;28;20197;-60
2021/08/25 04:37:15;;;;;;;12.40;9.30;;;13.40;99.90;;;;;;5009051;28;20279;-59
2021/08/25 04:39:41;;;;;;;13.30;9.93;;;13.40;99.90;;;;;;5009231;28;20192;-61
2021/08/25 04:42:06;;;;;;;13.90;9.03;;;13.40;99.90;;;;;;5002221;28;20173;-59
2021/08/25 04:44:33;;;;;;;13.47;8.97;;;13.40;99.90;;;;;;5003399;28;20180;-60
2021/08/25 04:46:58;;;;;;;14.23;10.00;;;13.40;99.90;;;;;;5004123;28;20314;-60
2021/08/25 04:49:24;;;;;;;13.50;9.80;;;13.40;99.90;;;;;;4991803;28;20530;-59
2021/08/25 04:51:49;;;;;;;19.90;9.90;;;13.40;99.90;;;;;;5006093;28;20778;-60
2021/08/25 04:54:15;;;;;;;12.20;9.47;;;13.40;99.90;;;;;;5008318;28;20173;-58
2021/08/25 04:56:41;;;;;;;13.10;9.47;;;13.40;99.90;;;;;;5004228;28;20177;-60
2021/08/25 04:59:06;;;;;;;14.40;10.10;;;13.40;99.90;;;;;;5001764;28;20220;-60
2021/08/25 05:01:34;;;;;;;13.20;8.90;;;13.40;99.90;;;;;;4983510;28;20315;-61
2021/08/25 05:03:59;;;;;;;12.27;9.77;;;13.40;99.90;;;;;;5002626;28;20173;-60
2021/08/25 05:06:25;;;;;;;11.77;8.80;;;13.40;99.90;;;;;;4989209;28;20436;-61
2021/08/25 05:08:50;;;;;;;11.93;9.00;;;13.40;99.90;;;;;;5003604;28;20695;-60
2021/08/25 05:11:16;;;;;;;11.83;8.53;;;13.40;99.90;;;;;;4985032;28;20667;-61
2021/08/25 05:13:42;;;;;;;15.33;9.20;;;13.40;99.90;;;;;;4999542;28;20177;-57
2021/08/25 05:16:12;;;;;;;13.10;8.20;;;13.40;99.90;;;;;;5002415;28;20259;-60
2021/08/25 05:18:39;;;;;;;13.80;8.77;;;13.40;99.90;;;;;;4984985;28;20263;-60
2021/08/25 05:21:05;;;;;;;19.17;9.77;;;13.40;99.90;;;;;;4985596;28;20435;-60
2021/08/25 05:23:30;;;;;;;11.27;8.57;;;13.40;99.90;;;;;;5004059;28;20427;-60
2021/08/25 05:25:56;;;;;;;11.00;8.80;;;13.40;99.90;;;;;;5004526;28;20255;-60
2021/08/25 05:28:22;;;;;;;13.77;8.93;;;13.40;99.90;;;;;;5000860;28;20224;-60
2021/08/25 05:30:47;;;;;;;11.90;8.60;;;13.40;99.90;;;;;;5006898;28;20172;-60
2021/08/25 05:33:13;;;;;;;10.87;8.30;;;13.40;99.90;;;;;;4982292;28;20180;-61
2021/08/25 05:35:39;;;;;;;12.20;8.50;;;13.40;99.90;;;;;;4999017;28;20198;-60
2021/08/25 05:38:04;;;;;;;12.97;8.70;;;13.40;99.90;;;;;;5000501;28;20192;-60
2021/08/25 05:40:30;;;;;;;12.97;9.03;;;13.40;99.90;;;;;;5007989;28;20280;-61
2021/08/25 05:42:56;;;;;;;19.03;9.13;;;13.40;99.90;;;;;;5002366;28;20641;-60
2021/08/25 05:45:23;;;;;;;12.50;9.07;;;13.40;99.90;;;;;;4981025;28;20192;-59
2021/08/25 05:47:48;;;;;;;10.17;8.13;;;13.40;99.90;;;;;;4995288;28;20216;-57
2021/08/25 05:50:14;;;;;;;14.90;9.63;;;13.50;99.90;;;;;;5001255;28;20532;-57
2021/08/25 05:52:40;;;;;;;15.93;8.83;;;13.60;99.90;;;;;;4976720;28;20730;-57
2021/08/25 05:55:06;;;;;;;10.53;8.40;;;13.60;99.90;;;;;;4997380;28;20843;-57
2021/08/25 05:57:31;;;;;;;11.20;8.30;;;13.60;99.90;;;;;;4999493;28;20557;-59
2021/08/25 05:59:57;;;;;;;12.13;8.70;;;13.60;99.90;;;;;;5003176;28;20456;-60
2021/08/25 06:02:23;;;;;;;13.70;8.50;;;13.60;99.90;;;;;;5004025;28;20164;-59
2021/08/25 06:04:49;;;;;;;10.37;8.80;;;13.60;99.90;;;;;;4998359;28;20168;-60
2021/08/25 06:07:17;;;;;;;13.40;9.23;;;13.60;99.90;;;;;;4982794;28;21002;-60
2021/08/25 06:09:52;;;;;;;10.50;8.47;;;13.60;99.90;;;;;;4999206;28;20577;-58
2021/08/25 06:12:18;;;;;;;14.23;9.50;;;13.60;99.90;;;;;;5004257;28;20471;-60
2021/08/25 06:14:43;;;;;;;12.83;9.20;;;13.60;99.90;;;;;;4985092;28;21852;-60
2021/08/25 06:17:09;;;;;;;11.80;9.20;;;13.60;99.90;;;;;;5006399;28;20279;-60
2021/08/25 06:19:35;;;;;;;13.40;8.47;;;13.60;99.90;;;;;;5004893;28;20222;-60
2021/08/25 06:22:00;;;;;;;14.60;8.70;;;13.60;99.90;;;;;;4999053;28;20176;-60
2021/08/25 06:24:26;;;;;;;11.57;8.53;;;13.60;99.90;;;;;;5004223;28;20192;-63
2021/08/25 06:26:52;;;;;;;15.67;9.83;;;13.60;99.90;;;;;;5001012;28;20172;-59
2021/08/25 06:29:17;;;;;;;15.33;10.20;;;13.60;99.90;;;;;;5010359;28;20227;-60
2021/08/25 06:31:43;;;;;;;15.07;9.97;;;13.60;99.90;;;;;;5011249;28;20703;-59
2021/08/25 06:34:08;;;;;;;12.33;9.70;;;13.60;99.90;;;;;;5010877;28;20184;-59
2021/08/25 06:36:34;;;;;;;16.73;10.03;;;13.60;99.90;;;;;;4994011;28;20203;-59
2021/08/25 06:39:00;;;;;;;15.00;9.47;;;13.60;99.90;;;;;;4993472;28;20552;-56
2021/08/25 06:41:25;;;;;;;12.90;9.80;;;13.50;99.90;;;;;;5000196;28;20232;-57
2021/08/25 06:43:51;;;;;;;15.23;9.47;;;13.50;99.90;;;;;;4997642;28;20173;-53
2021/08/25 06:46:17;;;;;;;15.27;10.43;;;13.50;99.90;;;;;;4982597;28;20185;-58
2021/08/25 06:48:43;;;;;;;14.63;9.50;;;13.50;99.90;;;;;;5000070;28;20675;-62
2021/08/25 06:51:08;;;;;;;15.03;10.20;;;13.60;99.90;;;;;;5006055;28;20176;-60
2021/08/25 06:53:35;;;;;;;11.30;9.27;;;13.60;99.90;;;;;;5007400;28;20212;-60
2021/08/25 06:56:01;;;;;;;17.60;9.87;;;13.60;99.90;;;;;;5010240;28;20208;-61
2021/08/25 06:58:27;;;;;;;15.93;10.60;;;13.60;99.90;;;;;;5006752;28;20474;-59
2021/08/25 07:00:54;;;;;;;12.20;9.90;;;13.60;99.90;;;;;;5009591;28;20179;-59
2021/08/25 07:03:20;;;;;;;13.00;10.00;;;13.60;99.90;;;;;;5007377;28;20431;-59
2021/08/25 07:05:46;;;;;;;12.03;9.70;;;13.60;99.90;;;;;;5003016;28;20451;-59
2021/08/25 07:08:11;;;;;;;13.30;9.63;;;13.60;99.90;;;;;;5009375;28;20466;-61
2021/08/25 07:10:37;;;;;;;12.43;9.90;;;13.70;99.90;;;;;;5005064;28;20624;-60
2021/08/25 07:13:03;;;;;;;12.83;9.10;;;13.70;99.90;;;;;;4992596;28;20263;-58
2021/08/25 07:15:29;;;;;;;12.30;10.03;;;13.70;99.90;;;;;;5005160;28;20243;-58
2021/08/25 07:17:54;;;;;;;15.93;9.47;;;13.80;99.90;;;;;;5007109;28;20169;-57
2021/08/25 07:20:20;;;;;;;12.97;9.50;;;13.80;99.90;;;;;;5005621;28;20187;-61
2021/08/25 07:22:46;;;;;;;13.43;9.93;;;13.90;99.90;;;;;;4990448;28;20184;-61
2021/08/25 07:25:12;;;;;;;14.57;9.80;;;13.90;99.90;;;;;;5008831;28;20176;-60
2021/08/25 07:27:39;;;;;;;17.73;9.90;;;14.00;99.90;;;;;;5010094;28;20200;-59
2021/08/25 07:30:05;;;;;;;19.90;9.03;;;14.00;99.90;;;;;;5009941;28;20183;-59
2021/08/25 07:32:31;;;;;;;11.80;8.63;;;14.10;99.90;;;;;;4989045;28;20425;-60
2021/08/25 07:34:57;;;;;;;12.00;8.37;;;14.20;99.30;;;;;;5005761;28;20501;-60
2021/08/25 07:37:23;;;;;;;14.17;9.40;;;14.20;99.50;;;;;;5001904;28;20854;-59
2021/08/25 07:39:48;;;;;;;14.37;9.77;;;14.30;99.30;;;;;;5006464;28;20188;-58
2021/08/25 07:42:14;;;;;;;12.20;8.97;;;14.30;98.80;;;;;;5005772;28;20172;-58
2021/08/25 07:44:40;;;;;;;10.43;8.50;;;14.40;98.50;;;;;;5008343;28;20545;-60
2021/08/25 07:47:05;;;;;;;14.60;8.77;;;14.40;98.20;;;;;;5008447;28;20657;-59
2021/08/25 07:49:31;;;;;;;15.20;9.27;;;14.50;98.60;;;;;;4993856;28;20590;-59
2021/08/25 07:51:58;;;;;;;15.20;9.97;;;14.50;98.90;;;;;;5005469;28;20330;-62
2021/08/25 07:54:24;;;;;;;11.53;8.70;;;14.60;97.80;;;;;;5000962;28;20275;-61
2021/08/25 07:56:49;;;;;;;11.97;9.10;;;14.60;97.10;;;;;;5002702;28;20522;-58
2021/08/25 07:59:15;;;;;;;11.10;9.03;;;14.70;97.30;;;;;;5003016;28;20271;-58
2021/08/25 08:01:41;;;;;;;12.97;8.67;;;14.80;97.50;;;;;;5002873;28;20184;-59
2021/08/25 08:04:06;;;;;;;12.83;8.03;;;14.90;97.20;;;;;;4985731;28;20184;-58
2021/08/25 08:06:32;;;;;;;9.97;8.07;;;15.00;96.90;;;;;;4981560;28;20184;-62
2021/08/25 08:08:58;;;;;;;11.70;7.83;;;15.10;96.10;;;;;;4998940;28;20208;-60
2021/08/25 08:11:23;;;;;;;10.70;7.80;;;15.20;95.10;;;;;;4981088;28;20184;-58
2021/08/25 08:13:49;;;;;;;11.60;8.47;;;15.40;94.70;;;;;;5001386;28;20189;-58
2021/08/25 08:16:19;;;;;;;10.13;8.37;;;15.50;93.40;;;;;;5000728;28;20692;-58
2021/08/25 08:19:05;;;;;;;12.17;8.37;;;15.60;92.50;;;;;;5002245;28;20279;-62
2021/08/25 08:21:31;;;;;;;12.63;8.03;;;15.80;92.20;;;;;;4996356;28;20439;-60
2021/08/25 08:23:58;;;;;;;15.87;8.70;;;15.80;91.10;;;;;;4983890;28;20806;-60
2021/08/25 08:26:28;;;;;;;7.50;6.73;;;15.80;91.60;;;;;;5006312;28;21031;-60
2021/08/25 08:28:55;;;;;;;11.00;8.00;;;15.90;90.90;;;;;;5008481;28;20451;-60
2021/08/25 08:31:21;;;;;;;9.40;7.40;;;16.00;92.10;;;;;;5000047;28;21139;-60
2021/08/25 08:33:46;;;;;;;9.10;7.90;;;16.10;91.50;;;;;;5005907;28;20443;-59
2021/08/25 08:36:12;;;;;;;11.10;8.20;;;16.10;91.60;;;;;;5007604;28;20215;-60
2021/08/25 08:38:37;;;;;;;9.30;7.33;;;16.30;91.70;;;;;;5007363;28;20230;-62
2021/08/25 08:41:03;;;;;;;11.60;7.50;;;16.30;89.90;;;;;;4993399;28;20184;-62
2021/08/25 08:43:30;;;;;;;10.57;7.03;;;16.30;87.70;;;;;;5004615;28;21813;-61
2021/08/25 08:45:55;;;;;;;9.10;7.03;;;16.40;86.20;;;;;;5001607;28;20251;-61
2021/08/25 08:48:23;;;;;;;11.00;7.30;;;16.40;85.30;;;;;;4987100;28;20558;-61
2021/08/25 08:50:48;;;;;;;9.27;7.07;;;16.50;85.10;;;;;;5003478;28;20219;-63
2021/08/25 08:53:18;;;;;;;10.00;6.80;;;16.60;86.10;;;;;;5009577;28;20873;-63
2021/08/25 08:55:45;;;;;;;7.03;6.33;;;16.70;87.00;;;;;;5009777;28;20677;-63
2021/08/25 08:58:11;;;;;;;8.40;6.37;;;16.80;88.10;;;;;;5009777;28;20493;-63
2021/08/25 09:00:39;;;;;;;8.50;6.17;;;16.90;87.50;;;;;;4999968;28;20445;-63
2021/08/25 09:03:26;;;;;;;10.77;6.37;;;17.10;86.50;;;;;;4998789;28;20256;-63
2021/08/25 09:06:00;;;;;;;10.10;6.33;;;17.20;84.80;;;;;;4997134;28;20770;-60
2021/08/25 09:08:28;;;;;;;7.00;5.70;;;17.40;83.00;;;;;;4992538;28;20501;-65
2021/08/25 09:11:03;;;;;;;7.00;5.97;;;17.50;82.40;;;;;;4994191;28;20470;-61
2021/08/25 09:13:37;;;;;;;10.90;5.93;;;17.60;80.50;;;;;;5005429;28;20430;-62
2021/08/25 09:16:03;;;;;;;7.33;5.43;;;17.60;78.50;;;;;;4996951;28;20471;-61
2021/08/25 09:18:29;;;;;;;6.77;5.30;;;17.70;78.10;;;;;;5001874;28;20460;-60
2021/08/25 09:20:55;;;;;;;9.50;5.73;;;17.70;76.30;;;;;;5004900;28;20436;-60
2021/08/25 09:23:30;;;;;;;6.13;5.13;;;17.80;77.30;;;;;;5004161;28;20442;-60
2021/08/25 09:26:00;;;;;;;7.57;5.13;;;17.90;76.60;;;;;;4999524;28;20426;-59
2021/08/25 09:28:33;;;;;;;6.13;4.97;;;18.00;76.10;;;;;;5001366;28;20458;-59
2021/08/25 09:31:04;;;;;;;5.83;5.13;;;18.10;73.10;;;;;;4999240;28;20518;-61
2021/08/25 09:33:35;;;;;;;5.33;4.83;;;18.20;71.80;;;;;;5001352;28;20439;-62
2021/08/25 09:36:07;;;;;;;6.70;5.50;;;18.30;71.30;;;;;;5000384;28;20512;-61
2021/08/25 09:38:34;;;;;;;8.23;5.20;;;18.40;72.50;;;;;;5000446;28;21379;-59
2021/08/25 09:41:18;;;;;;;5.77;4.97;;;18.60;70.40;;;;;;4998779;28;20442;-58
2021/08/25 09:43:47;;;;;;;7.63;5.33;;;18.70;67.40;;;;;;4997203;28;20482;-59
2021/08/25 09:46:15;;;;;;;4.90;4.40;;;18.70;66.00;;;;;;4991410;28;20834;-58
2021/08/25 09:48:56;;;;;;;5.70;4.30;;;18.80;67.00;;;;;;4996916;28;20549;-61
2021/08/25 09:51:35;;;;;;;5.80;4.30;;;19.00;68.50;;;;;;4998912;28;20427;-62
2021/08/25 09:54:17;;;;;;;5.73;4.80;;;19.10;64.60;;;;;;5002475;28;20419;-63
2021/08/25 09:56:44;;;;;;;7.00;4.20;;;19.20;64.30;;;;;;5006828;28;21549;-61
2021/08/25 09:59:11;;;;;;;9.53;4.30;;;19.30;64.60;;;;;;5004415;28;20551;-61
2021/08/25 10:01:38;;;;;;;7.73;4.43;;;19.40;62.50;;;;;;5000546;28;21012;-61
2021/08/25 10:04:13;;;;;;;5.77;4.20;;;19.40;61.90;;;;;;5001926;28;20428;-62
2021/08/25 10:06:41;;;;;;;5.57;4.30;;;19.50;62.10;;;;;;4990223;28;20438;-60
2021/08/25 10:09:07;;;;;;;10.80;4.10;;;19.60;60.80;;;;;;4997040;28;20451;-61
2021/08/25 10:11:38;;;;;;;8.67;4.70;;;19.70;61.00;;;;;;4992236;28;20438;-62
2021/08/25 10:14:12;;;;;;;6.10;4.60;;;19.80;60.10;;;;;;4998379;28;20848;-61
2021/08/25 10:16:48;;;;;;;6.13;4.20;;;19.90;59.00;;;;;;4995908;28;20987;-60
2021/08/25 10:19:37;;;;;;;6.47;4.43;;;19.90;57.60;;;;;;4976170;28;20454;-59
2021/08/25 10:22:15;;;;;;;8.23;4.77;;;20.00;57.60;;;;;;5005180;28;20930;-61
2021/08/25 10:25:05;;;;;;;7.23;4.80;;;20.10;56.90;;;;;;4988222;28;20427;-57
2021/08/25 10:27:33;;;;;;;7.97;4.20;;;20.20;55.90;;;;;;4990537;28;21207;-61
2021/08/25 10:30:02;;;;;;;9.90;4.50;;;20.20;56.30;;;;;;4994749;28;20856;-61
2021/08/25 10:32:32;;;;;;;5.70;4.20;;;20.30;55.80;;;;;;4993684;28;20439;-59
2021/08/25 10:35:20;;;;;;;5.77;3.90;;;20.40;56.20;;;;;;4988803;28;20471;-61
2021/08/25 10:37:47;;;;;;;7.73;4.10;;;20.50;55.10;;;;;;4990944;28;20431;-61
2021/08/25 10:40:19;;;;;;;4.70;3.63;;;20.50;55.60;;;;;;4994360;28;20462;-60
2021/08/25 10:42:54;;;;;;;5.00;3.40;;;20.60;54.90;;;;;;4996766;28;20493;-60
2021/08/25 10:45:41;;;;;;;5.90;3.70;;;20.70;54.30;;;;;;4999072;28;20435;-61
2021/08/25 10:48:10;;;;;;;6.93;4.10;;;20.80;54.80;;;;;;4995812;28;20482;-60
2021/08/25 10:50:49;;;;;;;8.17;4.43;;;20.80;53.90;;;;;;4988922;28;20443;-60
2021/08/25 10:53:30;;;;;;;4.80;3.60;;;20.70;51.40;;;;;;4982934;28;20466;-58
2021/08/25 10:56:11;;;;;;;5.10;4.03;;;20.60;52.60;;;;;;4993654;28;20520;-57
2021/08/25 10:58:46;;;;;;;11.00;4.60;;;20.70;53.50;;;;;;4974489;28;21033;-58
2021/08/25 11:01:38;;;;;;;4.17;3.57;;;20.80;53.60;;;;;;4981513;28;20414;-57
2021/08/25 11:04:13;;;;;;;5.77;3.50;;;21.00;53.90;;;;;;5000160;28;22604;-59
2021/08/25 11:06:43;;;;;;;5.63;3.40;;;21.10;53.10;;;;;;4991991;28;20887;-58
2021/08/25 11:09:10;;;;;;;5.10;3.60;;;21.30;53.00;;;;;;4997661;28;20530;-58
2021/08/25 11:11:35;;;;;;;3.97;2.83;;;21.40;51.20;;;;;;4971676;28;20453;-60
2021/08/25 11:14:01;;;;;;;10.80;4.10;;;21.40;50.90;;;;;;5002082;28;20439;-59
2021/08/25 11:16:26;;;;;;;6.80;4.17;;;21.60;51.80;;;;;;4996097;28;20196;-60
2021/08/25 11:18:52;;;;;;;11.77;4.50;;;21.70;51.60;;;;;;4994352;28;20242;-59
2021/08/25 11:21:18;;;;;;;7.60;4.73;;;21.90;52.60;;;;;;5001884;28;20300;-60
2021/08/25 11:23:53;;;;;;;6.73;3.87;;;22.10;52.70;;;;;;5000529;28;20587;-60
2021/08/25 11:26:19;;;;;;;6.37;4.40;;;22.20;52.60;;;;;;5005016;28;20191;-59
2021/08/25 11:28:45;;;;;;;10.57;3.73;;;22.20;50.00;;;;;;4997167;28;20975;-58
2021/08/25 11:31:10;;;;;;;3.87;3.40;;;22.30;49.40;;;;;;4996479;28;20700;-59
2021/08/25 11:33:44;;;;;;;4.33;3.87;;;22.30;48.70;;;;;;5000104;28;20974;-60
2021/08/25 11:36:10;;;;;;;5.00;3.93;;;22.40;49.10;;;;;;4979996;28;20203;-59
2021/08/25 11:38:36;;;;;;;6.40;5.00;;;22.50;50.40;;;;;;5002004;28;20451;-60
2021/08/25 11:41:02;;;;;;;5.20;3.83;;;22.70;50.70;;;;;;4962095;28;20188;-59
2021/08/25 11:43:27;;;;;;;5.73;3.70;;;22.80;50.70;;;;;;4999561;28;20754;-59
2021/08/25 11:45:55;;;;;;;8.27;4.60;;;22.90;49.50;;;;;;4996596;28;20184;-59
2021/08/25 11:48:26;;;;;;;6.60;3.77;;;22.70;48.70;;;;;;4993651;28;20207;-57
2021/08/25 11:50:52;;;;;;;5.17;3.87;;;22.70;48.30;;;;;;4994791;28;21005;-58
2021/08/25 11:53:18;;;;;;;5.63;3.40;;;22.80;47.00;;;;;;5004104;28;20458;-59
2021/08/25 11:55:46;;;;;;;5.50;3.67;;;22.90;47.60;;;;;;4998529;28;20477;-56
2021/08/25 11:58:26;;;;;;;5.70;3.57;;;23.10;46.90;;;;;;4999812;28;20474;-58
2021/08/25 12:00:53;;;;;;;6.67;3.63;;;23.30;47.30;;;;;;5006457;28;20419;-59
2021/08/25 12:03:19;;;;;;;5.00;3.77;;;23.50;47.10;;;;;;5007931;28;20808;-58
2021/08/25 12:05:53;;;;;;;10.50;3.90;;;23.70;48.10;;;;;;4998919;28;21004;-58
2021/08/25 12:08:19;;;;;;;4.93;3.40;;;23.80;47.50;;;;;;4999696;28;20546;-61
2021/08/25 12:11:06;;;;;;;6.73;3.53;;;23.90;46.40;;;;;;5002993;28;21180;-58
2021/08/25 12:13:34;;;;;;;6.07;3.40;;;24.00;46.30;;;;;;4999290;28;20432;-59
2021/08/25 12:16:01;;;;;;;4.60;3.30;;;24.20;47.20;;;;;;5003006;28;20451;-59
2021/08/25 12:18:28;;;;;;;5.70;3.27;;;24.40;47.00;;;;;;4999591;28;20971;-59
2021/08/25 12:21:07;;;;;;;6.80;3.97;;;24.50;47.20;;;;;;4992357;28;20435;-60
2021/08/25 12:23:33;;;;;;;3.83;3.43;;;24.60;47.50;;;;;;5001383;28;20443;-59
2021/08/25 12:25:58;;;;;;;5.57;4.07;;;24.80;47.30;;;;;;4997468;28;20987;-59
2021/08/25 12:28:42;;;;;;;3.90;3.17;;;24.90;46.80;;;;;;4997171;28;20222;-59
2021/08/25 12:31:15;;;;;;;4.27;3.57;;;24.70;46.30;;;;;;4999064;28;20212;-58
2021/08/25 12:33:42;;;;;;;7.63;3.97;;;24.60;46.20;;;;;;4997234;28;20427;-58
2021/08/25 12:36:23;;;;;;;6.57;4.07;;;24.60;45.90;;;;;;4997077;28;20467;-59
2021/08/25 12:38:49;;;;;;;3.97;3.50;;;24.50;46.20;;;;;;5000536;28;20458;-58
2021/08/25 12:41:16;;;;;;;5.00;3.60;;;24.10;46.10;;;;;;5000922;28;20443;-60